createdAt,value
2023-05-06T04:38:06.564Z,6.94
2023-05-06T04:40:33.124Z,6.67
2023-05-06T04:42:59.573Z,6.50
2023-05-06T04:45:26.222Z,6.26
2023-05-06T04:47:52.752Z,6.60
2023-05-06T04:50:19.388Z,6.48
2023-05-06T04:52:45.799Z,6.46
2023-05-06T04:55:12.498Z,6.50
2023-05-06T04:57:39.229Z,6.39
2023-05-06T05:00:05.681Z,6.68
2023-05-06T05:02:32.409Z,6.83
2023-05-06T05:04:58.945Z,6.72
2023-05-06T05:07:25.384Z,6.23
2023-05-06T05:09:51.921Z,6.46
2023-05-06T05:12:18.368Z,6.41
2023-05-06T05:14:44.773Z,6.39
2023-05-06T05:17:11.291Z,6.11
2023-05-06T05:19:37.830Z,6.14
2023-05-06T05:22:04.291Z,6.17
2023-05-06T05:24:30.874Z,6.11
2023-05-06T05:26:57.385Z,6.23
2023-05-06T05:29:24.015Z,5.84
2023-05-06T05:31:50.531Z,6.08
2023-05-06T05:34:16.955Z,6.02
2023-05-06T05:36:43.494Z,6.04
2023-05-06T05:39:10.022Z,5.97
2023-05-06T05:41:36.541Z,6.12
2023-05-06T05:44:03.174Z,6.37
2023-05-06T05:46:29.778Z,5.89
2023-05-06T05:48:56.182Z,5.99
2023-05-06T05:51:22.735Z,5.84
2023-05-06T05:53:49.217Z,5.89
2023-05-06T05:56:15.682Z,5.85
2023-05-06T05:58:42.128Z,5.76
2023-05-06T06:01:08.587Z,5.85
2023-05-06T06:03:35.221Z,5.41
2023-05-06T06:06:01.795Z,5.74
2023-05-06T06:08:28.312Z,5.54
2023-05-06T06:10:54.826Z,5.70
2023-05-06T06:13:21.359Z,5.58
2023-05-06T06:15:47.813Z,5.82
2023-05-06T06:18:14.304Z,5.32
2023-05-06T06:20:40.780Z,5.62
2023-05-06T06:23:07.279Z,5.49
2023-05-06T06:25:33.695Z,5.77
2023-05-06T06:28:00.192Z,5.39
2023-05-06T06:30:26.585Z,5.53
2023-05-06T06:32:53.182Z,5.75
2023-05-06T06:35:19.695Z,5.20
2023-05-06T06:37:46.227Z,5.56
2023-05-06T06:40:12.664Z,5.49
2023-05-06T06:42:39.051Z,5.52
2023-05-06T06:45:05.495Z,5.34
2023-05-06T06:47:32.076Z,5.14
2023-05-06T06:49:58.572Z,5.32
2023-05-06T06:52:25.028Z,5.07
2023-05-06T06:54:51.443Z,5.16
2023-05-06T06:57:18.026Z,5.38
2023-05-06T06:59:44.499Z,5.30
2023-05-06T07:02:11.022Z,5.06
2023-05-06T07:04:37.564Z,5.19
2023-05-06T07:07:04.039Z,5.06
2023-05-06T07:09:30.518Z,5.24
2023-05-06T07:11:56.957Z,5.13
2023-05-06T07:14:23.408Z,5.47
2023-05-06T07:16:51.485Z,5.11
2023-05-06T07:19:18.112Z,5.31
2023-05-06T07:21:44.640Z,4.99
2023-05-06T07:24:11.110Z,4.86
2023-05-06T07:26:37.642Z,5.03
2023-05-06T07:29:04.201Z,5.17
2023-05-06T07:31:30.792Z,4.99
2023-05-06T07:33:57.352Z,5.08
2023-05-06T07:36:23.863Z,5.21
2023-05-06T07:38:50.487Z,4.88
2023-05-06T07:41:16.989Z,4.70
2023-05-06T07:43:43.459Z,4.87
2023-05-06T07:46:09.963Z,4.93
2023-05-06T07:48:36.411Z,4.70
2023-05-06T07:51:02.846Z,4.58
2023-05-06T07:53:29.489Z,4.57
2023-05-06T07:55:55.951Z,4.93
2023-05-06T07:58:22.412Z,4.74
2023-05-06T08:00:48.849Z,4.48
2023-05-06T08:03:15.481Z,4.72
2023-05-06T08:05:42.082Z,4.21
2023-05-06T08:08:08.643Z,4.64
2023-05-06T08:10:35.187Z,4.47
2023-05-06T08:13:01.688Z,4.66
2023-05-06T08:15:28.206Z,4.74
2023-05-06T08:17:54.838Z,4.58
2023-05-06T08:20:21.327Z,4.55
2023-05-06T08:22:47.773Z,4.47
2023-05-06T08:25:14.237Z,4.39
2023-05-06T08:27:40.688Z,4.48
2023-05-06T08:30:07.140Z,4.42
2023-05-06T08:32:33.612Z,4.33
2023-05-06T08:35:00.154Z,4.32
2023-05-06T08:37:26.620Z,4.43
2023-05-06T08:39:53.112Z,4.31
2023-05-06T08:42:19.623Z,3.97
2023-05-06T08:44:46.150Z,4.44
2023-05-06T08:47:12.597Z,4.29
2023-05-06T08:49:39.229Z,4.48
2023-05-06T08:52:05.701Z,4.46
2023-05-06T08:54:32.192Z,4.42
2023-05-06T08:56:58.695Z,4.24
2023-05-06T08:59:25.150Z,3.89
2023-05-06T09:01:51.631Z,4.26
2023-05-06T09:04:18.212Z,4.45
2023-05-06T09:06:44.646Z,4.26
2023-05-06T09:09:11.133Z,4.13
2023-05-06T09:11:37.666Z,4.09
2023-05-06T09:14:04.242Z,4.17
2023-05-06T09:16:30.884Z,4.29
2023-05-06T09:18:57.374Z,4.16
2023-05-06T09:21:23.832Z,4.10
2023-05-06T09:23:50.263Z,4.07
2023-05-06T09:26:16.841Z,4.09
2023-05-06T09:28:43.341Z,3.89
2023-05-06T09:31:09.922Z,4.13
2023-05-06T09:33:36.401Z,4.09
2023-05-06T09:36:02.917Z,4.27
2023-05-06T09:38:29.359Z,3.86
2023-05-06T09:40:55.798Z,3.83
2023-05-06T09:43:22.327Z,3.97
2023-05-06T09:45:48.829Z,4.00
2023-05-06T09:48:15.338Z,3.95
2023-05-06T09:50:41.827Z,3.90
2023-05-06T09:53:08.367Z,4.18
2023-05-06T09:55:34.934Z,6.16
2023-05-06T09:58:01.521Z,9.31
2023-05-06T10:00:28.277Z,13.16
2023-05-06T10:02:54.994Z,19.46
2023-05-06T10:05:21.806Z,25.39
2023-05-06T10:07:48.307Z,28.32
2023-05-06T10:10:14.807Z,29.54
2023-05-06T10:12:41.421Z,30.90
2023-05-06T10:15:08.112Z,32.54
2023-05-06T10:17:34.666Z,34.21
2023-05-06T10:20:01.159Z,34.44
2023-05-06T10:22:27.695Z,36.21
2023-05-06T10:24:54.141Z,48.54
2023-05-06T10:27:20.578Z,56.96
2023-05-06T10:29:47.162Z,61.07
2023-05-06T10:32:13.716Z,61.84
2023-05-06T10:34:40.215Z,62.15
2023-05-06T10:37:06.628Z,58.26
2023-05-06T10:39:33.122Z,57.16
2023-05-06T10:41:59.656Z,55.80
2023-05-06T10:44:26.239Z,54.16
2023-05-06T10:46:52.703Z,53.99
2023-05-06T10:49:19.213Z,52.83
2023-05-06T10:51:45.721Z,52.37
2023-05-06T10:54:12.230Z,51.03
2023-05-06T10:56:38.753Z,50.79
2023-05-06T10:59:06.256Z,49.85
2023-05-06T11:01:32.904Z,50.07
2023-05-06T11:03:59.406Z,49.39
2023-05-06T11:06:26.568Z,48.57
2023-05-06T11:08:53.106Z,48.72
2023-05-06T11:11:19.582Z,47.15
2023-05-06T11:13:46.041Z,46.94
2023-05-06T11:16:12.623Z,46.91
2023-05-06T11:18:39.185Z,46.32
2023-05-06T11:21:05.620Z,45.85
2023-05-06T11:23:32.129Z,45.10
2023-05-06T11:25:58.580Z,43.39
2023-05-06T11:28:25.017Z,44.20
2023-05-06T11:30:51.494Z,42.65
2023-05-06T11:33:17.925Z,43.44
2023-05-06T11:35:44.510Z,42.49
2023-05-06T11:38:11.072Z,41.78
2023-05-06T11:40:37.618Z,42.51
2023-05-06T11:43:04.224Z,42.45
2023-05-06T11:45:30.655Z,42.35
2023-05-06T11:47:57.272Z,42.98
2023-05-06T11:50:23.763Z,42.22
2023-05-06T11:52:50.352Z,41.44
2023-05-06T11:55:16.797Z,40.77
2023-05-06T11:57:43.250Z,41.32
2023-05-06T12:00:10.114Z,41.13
2023-05-06T12:02:36.977Z,40.09
2023-05-06T12:05:03.682Z,40.87
2023-05-06T12:07:30.171Z,39.68
2023-05-06T12:09:56.670Z,39.66
2023-05-06T12:12:23.224Z,39.93
2023-05-06T12:14:49.903Z,40.26
2023-05-06T12:17:16.394Z,39.83
2023-05-06T12:19:42.944Z,39.81
2023-05-06T12:22:09.378Z,39.24
2023-05-06T12:24:36.291Z,39.10
2023-05-06T12:27:02.852Z,39.46
2023-05-06T12:29:29.385Z,38.79
2023-05-06T12:31:55.941Z,37.83
2023-05-06T12:34:22.433Z,37.94
2023-05-06T12:36:48.872Z,38.10
2023-05-06T12:39:18.360Z,38.11
2023-05-06T12:41:44.844Z,36.88
2023-05-06T12:44:11.424Z,36.70
2023-05-06T12:46:37.849Z,36.22
2023-05-06T12:49:04.422Z,36.55
2023-05-06T12:51:31.007Z,36.66
2023-05-06T12:53:59.075Z,36.23
2023-05-06T12:56:25.539Z,35.77
2023-05-06T12:58:52.068Z,34.95
2023-05-06T13:01:18.559Z,35.00
2023-05-06T13:03:45.137Z,35.22
2023-05-06T13:06:11.743Z,34.54
2023-05-06T13:08:38.223Z,33.85
2023-05-06T13:11:04.850Z,34.20
2023-05-06T13:13:31.442Z,34.88
2023-05-06T13:15:58.042Z,33.60
2023-05-06T13:18:24.575Z,33.45
2023-05-06T13:20:51.116Z,34.10
2023-05-06T13:23:17.652Z,32.78
2023-05-06T13:25:59.761Z,33.87
2023-05-06T13:28:30.440Z,33.64
2023-05-06T13:30:56.977Z,32.61
2023-05-06T13:33:23.439Z,33.04
2023-05-06T13:35:49.872Z,33.55
2023-05-06T13:38:16.358Z,33.95
2023-05-06T13:40:42.808Z,33.78
2023-05-06T13:43:09.300Z,33.05
2023-05-06T13:45:35.740Z,33.50
2023-05-06T13:48:02.302Z,32.91
2023-05-06T13:50:28.793Z,33.09
2023-05-06T13:52:55.286Z,32.59
2023-05-06T13:55:21.890Z,32.31
2023-05-06T13:57:48.440Z,32.37
2023-05-06T14:00:14.897Z,32.14
2023-05-06T14:02:41.465Z,32.06
2023-05-06T14:05:08.076Z,31.54
2023-05-06T14:07:34.651Z,31.33
2023-05-06T14:10:01.118Z,30.42
2023-05-06T14:12:27.548Z,31.43
2023-05-06T14:14:54.065Z,30.16
2023-05-06T14:17:20.592Z,30.60
2023-05-06T14:19:47.095Z,30.25
2023-05-06T14:22:13.517Z,29.80
2023-05-06T14:24:40.000Z,29.49
2023-05-06T14:27:06.578Z,28.56
2023-05-06T14:29:33.142Z,28.56
2023-05-06T14:31:59.717Z,30.12
2023-05-06T14:34:26.268Z,29.45
2023-05-06T14:36:52.800Z,30.10
2023-05-06T14:39:19.337Z,29.03
2023-05-06T14:41:45.792Z,29.36
2023-05-06T14:44:12.261Z,28.60
2023-05-06T14:46:38.789Z,28.89
2023-05-06T14:49:05.338Z,29.41
2023-05-06T14:51:31.805Z,28.43
2023-05-06T14:53:58.261Z,28.18
2023-05-06T14:56:24.964Z,28.52
2023-05-06T14:58:51.597Z,28.08
2023-05-06T15:01:18.147Z,26.91
2023-05-06T15:03:44.670Z,26.91
2023-05-06T15:06:11.153Z,27.56
2023-05-06T15:08:37.587Z,26.83
2023-05-06T15:11:04.500Z,27.45
2023-05-06T15:13:31.032Z,27.49
2023-05-06T15:15:57.522Z,26.54
2023-05-06T15:18:24.024Z,26.55
2023-05-06T15:20:50.565Z,27.12
2023-05-06T15:23:17.294Z,27.12
2023-05-06T15:25:43.758Z,28.17
2023-05-06T15:28:10.201Z,27.88
2023-05-06T15:30:36.689Z,27.40
2023-05-06T15:33:03.291Z,26.43
2023-05-06T15:35:29.822Z,25.55
2023-05-06T15:37:56.292Z,25.72
2023-05-06T15:40:22.741Z,26.44
2023-05-06T15:42:49.180Z,26.64
2023-05-06T15:45:15.653Z,26.10
2023-05-06T15:47:42.155Z,26.52
2023-05-06T15:50:20.125Z,26.11
2023-05-06T15:52:51.517Z,26.52
2023-05-06T15:55:19.076Z,25.69
2023-05-06T15:57:45.906Z,25.35
2023-05-06T16:00:12.857Z,26.23
2023-05-06T16:02:39.716Z,26.01
2023-05-06T16:05:06.275Z,25.23
2023-05-06T16:07:32.769Z,26.50
2023-05-06T16:09:59.312Z,25.79
2023-05-06T16:12:25.929Z,25.50
2023-05-06T16:14:52.496Z,24.54
2023-05-06T16:17:19.044Z,23.41
2023-05-06T16:19:45.544Z,23.08
2023-05-06T16:22:12.043Z,22.76
2023-05-06T16:24:38.580Z,23.16
2023-05-06T16:27:05.085Z,22.83
2023-05-06T16:29:31.595Z,21.42
2023-05-06T16:31:58.148Z,21.00
2023-05-06T16:34:24.658Z,20.62
2023-05-06T16:36:51.182Z,20.64
2023-05-06T16:39:17.680Z,19.66
2023-05-06T16:41:44.226Z,19.55
2023-05-06T16:44:10.722Z,18.83
2023-05-06T16:46:37.242Z,18.98
2023-05-06T16:49:03.762Z,17.93
2023-05-06T16:51:30.224Z,17.59
2023-05-06T16:53:56.757Z,17.63
2023-05-06T16:56:23.194Z,16.95
2023-05-06T16:58:49.786Z,15.99
2023-05-06T17:01:16.346Z,16.36
2023-05-06T17:03:43.019Z,15.78
2023-05-06T17:06:09.477Z,16.19
2023-05-06T17:08:36.876Z,15.55
2023-05-06T17:11:05.070Z,15.52
2023-05-06T17:13:31.732Z,16.02
2023-05-06T17:15:58.277Z,15.94
2023-05-06T17:18:24.759Z,16.31
2023-05-06T17:20:56.105Z,16.00
2023-05-06T17:23:23.541Z,17.03
2023-05-06T17:25:50.067Z,16.65
2023-05-06T17:28:18.044Z,16.87
2023-05-06T17:30:45.336Z,16.78
2023-05-06T17:33:11.817Z,16.78
2023-05-06T17:35:38.268Z,16.22
2023-05-06T17:38:04.778Z,16.25
2023-05-06T17:40:31.372Z,15.77
2023-05-06T17:42:57.810Z,16.04
2023-05-06T17:45:24.239Z,15.84
2023-05-06T17:47:50.801Z,15.87
2023-05-06T17:50:17.402Z,15.98
2023-05-06T17:52:43.924Z,15.47
2023-05-06T17:55:16.474Z,15.14
2023-05-06T17:57:44.028Z,15.02
2023-05-06T18:00:10.517Z,15.34
2023-05-06T18:02:37.063Z,15.20
2023-05-06T18:05:03.577Z,15.07
2023-05-06T18:07:30.080Z,14.84
2023-05-06T18:09:56.760Z,14.91
2023-05-06T18:12:23.240Z,13.93
2023-05-06T18:14:49.844Z,14.15
2023-05-06T18:17:16.309Z,13.49
2023-05-06T18:19:42.887Z,13.72
2023-05-06T18:22:09.394Z,13.80
2023-05-06T18:24:35.892Z,13.17
2023-05-06T18:27:02.460Z,12.79
2023-05-06T18:29:29.029Z,12.95
2023-05-06T18:31:55.641Z,12.38
2023-05-06T18:34:22.235Z,11.90
2023-05-06T18:36:48.800Z,12.00
2023-05-06T18:39:15.291Z,11.57
2023-05-06T18:41:41.767Z,11.49
2023-05-06T18:44:08.257Z,11.62
2023-05-06T18:46:34.828Z,11.79
2023-05-06T18:49:01.365Z,11.01
2023-05-06T18:51:27.896Z,11.44
2023-05-06T18:53:54.440Z,11.42
2023-05-06T18:56:21.011Z,10.87
2023-05-06T18:58:47.427Z,11.16
2023-05-06T19:01:13.947Z,10.94
2023-05-06T19:03:40.509Z,10.77
2023-05-06T20:37:08.626Z,8.10
2023-05-06T20:39:35.220Z,8.49
2023-05-06T20:42:01.768Z,8.37
2023-05-06T20:44:28.309Z,8.31
2023-05-06T20:46:54.859Z,8.11
2023-05-06T20:49:21.419Z,8.26
2023-05-06T20:51:47.812Z,8.12
2023-05-06T21:31:12.503Z,7.49
2023-05-06T21:33:39.212Z,7.42
